sensor_id;sensor_type;location;lat;lon;timestamp;temperature;humidity
54006;DHT22;39919;38.160;-122.260;2022-09-09T16:55:40;32.90;47.00
54006;DHT22;39919;38.160;-122.260;2022-09-09T16:58:10;32.80;47.20
54006;DHT22;39919;38.160;-122.260;2022-09-09T17:00:38;33.00;46.30
54006;DHT22;39919;38.160;-122.260;2022-09-09T17:03:11;33.20;47.00
54006;DHT22;39919;38.160;-122.260;2022-09-09T17:05:40;33.40;46.10
54006;DHT22;39919;38.160;-122.260;2022-09-09T17:08:11;33.70;45.80
54006;DHT22;39919;38.160;-122.260;2022-09-09T17:10:42;34.00;44.90
54006;DHT22;39919;38.160;-122.260;2022-09-09T17:13:10;34.30;44.10
54006;DHT22;39919;38.160;-122.260;2022-09-09T17:15:41;34.40;44.80
54006;DHT22;39919;38.160;-122.260;2022-09-09T17:18:10;34.50;44.20
54006;DHT22;39919;38.160;-122.260;2022-09-09T17:20:39;34.60;44.40
54006;DHT22;39919;38.160;-122.260;2022-09-09T17:23:09;34.70;43.80
54006;DHT22;39919;38.160;-122.260;2022-09-09T17:25:39;34.90;44.00
54006;DHT22;39919;38.160;-122.260;2022-09-09T17:28:11;35.10;43.90
54006;DHT22;39919;38.160;-122.260;2022-09-09T17:30:41;35.30;43.10
54006;DHT22;39919;38.160;-122.260;2022-09-09T17:33:09;35.60;43.10
54006;DHT22;39919;38.160;-122.260;2022-09-09T17:35:37;35.70;42.90
54006;DHT22;39919;38.160;-122.260;2022-09-09T17:38:05;35.90;42.70
54006;DHT22;39919;38.160;-122.260;2022-09-09T17:40:34;36.10;42.40
54006;DHT22;39919;38.160;-122.260;2022-09-09T17:43:02;36.10;41.10
54006;DHT22;39919;38.160;-122.260;2022-09-09T17:45:33;36.30;41.30
54006;DHT22;39919;38.160;-122.260;2022-09-09T17:48:04;36.40;42.20
54006;DHT22;39919;38.160;-122.260;2022-09-09T17:50:32;36.50;40.60
54006;DHT22;39919;38.160;-122.260;2022-09-09T17:53:00;36.70;40.30
54006;DHT22;39919;38.160;-122.260;2022-09-09T17:55:29;36.80;40.40
54006;DHT22;39919;38.160;-122.260;2022-09-09T17:57:57;36.90;40.90
54006;DHT22;39919;38.160;-122.260;2022-09-09T18:00:25;37.00;40.10
54006;DHT22;39919;38.160;-122.260;2022-09-09T18:02:57;37.20;40.60
54006;DHT22;39919;38.160;-122.260;2022-09-09T18:05:26;37.40;40.10
54006;DHT22;39919;38.160;-122.260;2022-09-09T18:07:54;37.60;40.00
54006;DHT22;39919;38.160;-122.260;2022-09-09T18:10:22;37.80;39.90
54006;DHT22;39919;38.160;-122.260;2022-09-09T18:12:51;37.90;39.80
54006;DHT22;39919;38.160;-122.260;2022-09-09T18:15:19;38.20;39.20
54006;DHT22;39919;38.160;-122.260;2022-09-09T18:17:47;38.50;39.20
54006;DHT22;39919;38.160;-122.260;2022-09-09T18:20:17;38.70;39.20
54006;DHT22;39919;38.160;-122.260;2022-09-09T18:22:47;39.10;38.60
54006;DHT22;39919;38.160;-122.260;2022-09-09T18:25:15;39.30;38.70
54006;DHT22;39919;38.160;-122.260;2022-09-09T18:27:43;39.60;37.70
54006;DHT22;39919;38.160;-122.260;2022-09-09T18:30:12;39.80;36.50
54006;DHT22;39919;38.160;-122.260;2022-09-09T18:32:40;40.10;36.40
54006;DHT22;39919;38.160;-122.260;2022-09-09T18:35:14;40.20;34.80
54006;DHT22;39919;38.160;-122.260;2022-09-09T18:37:44;40.10;34.70
54006;DHT22;39919;38.160;-122.260;2022-09-09T18:40:13;39.90;34.40
54006;DHT22;39919;38.160;-122.260;2022-09-09T18:42:43;39.70;34.70
54006;DHT22;39919;38.160;-122.260;2022-09-09T18:45:14;39.60;34.90
54006;DHT22;39919;38.160;-122.260;2022-09-09T18:47:43;39.40;34.90
54006;DHT22;39919;38.160;-122.260;2022-09-09T18:50:11;39.30;34.90
54006;DHT22;39919;38.160;-122.260;2022-09-09T18:52:40;39.10;34.90
54006;DHT22;39919;38.160;-122.260;2022-09-09T18:55:09;39.00;36.10
54006;DHT22;39919;38.160;-122.260;2022-09-09T18:57:40;39.10;36.50
54006;DHT22;39919;38.160;-122.260;2022-09-09T19:00:10;39.20;35.70
54006;DHT22;39919;38.160;-122.260;2022-09-09T19:02:39;39.40;36.20
54006;DHT22;39919;38.160;-122.260;2022-09-09T19:05:09;39.60;36.00
54006;DHT22;39919;38.160;-122.260;2022-09-09T19:07:37;39.70;35.80
54006;DHT22;39919;38.160;-122.260;2022-09-09T19:10:06;39.90;36.00
54006;DHT22;39919;38.160;-122.260;2022-09-09T19:12:36;40.10;34.40
54006;DHT22;39919;38.160;-122.260;2022-09-09T19:15:07;40.10;34.10
54006;DHT22;39919;38.160;-122.260;2022-09-09T19:17:35;40.30;34.60
54006;DHT22;39919;38.160;-122.260;2022-09-09T19:20:04;40.40;34.20
54006;DHT22;39919;38.160;-122.260;2022-09-09T19:22:35;40.40;33.70
54006;DHT22;39919;38.160;-122.260;2022-09-09T19:25:04;40.20;33.50
54006;DHT22;39919;38.160;-122.260;2022-09-09T19:27:32;39.80;43.90
54006;DHT22;39919;38.160;-122.260;2022-09-09T19:30:02;39.40;48.60
54006;DHT22;39919;38.160;-122.260;2022-09-09T19:34:58;38.50;35.10
54006;DHT22;39919;38.160;-122.260;2022-09-09T19:37:26;38.20;35.30
54006;DHT22;39919;38.160;-122.260;2022-09-09T19:39:57;37.80;36.10
54006;DHT22;39919;38.160;-122.260;2022-09-09T19:42:25;37.40;36.60
54006;DHT22;39919;38.160;-122.260;2022-09-09T19:44:55;36.80;36.70
54006;DHT22;39919;38.160;-122.260;2022-09-09T19:47:24;36.40;37.40
54006;DHT22;39919;38.160;-122.260;2022-09-09T19:49:53;36.00;37.80
54006;DHT22;39919;38.160;-122.260;2022-09-09T19:52:21;35.70;38.20
54006;DHT22;39919;38.160;-122.260;2022-09-09T19:54:49;35.30;38.70
54006;DHT22;39919;38.160;-122.260;2022-09-09T19:57:17;35.10;39.00
54006;DHT22;39919;38.160;-122.260;2022-09-09T19:59:46;34.90;39.20
54006;DHT22;39919;38.160;-122.260;2022-09-09T20:02:14;34.80;39.40
54006;DHT22;39919;38.160;-122.260;2022-09-09T20:04:44;34.60;39.60
54006;DHT22;39919;38.160;-122.260;2022-09-09T20:07:14;34.50;39.80
54006;DHT22;39919;38.160;-122.260;2022-09-09T20:09:42;34.30;39.90
54006;DHT22;39919;38.160;-122.260;2022-09-09T20:12:12;34.30;40.00
54006;DHT22;39919;38.160;-122.260;2022-09-09T20:14:42;34.10;39.80
54006;DHT22;39919;38.160;-122.260;2022-09-09T20:17:13;34.00;40.20
54006;DHT22;39919;38.160;-122.260;2022-09-09T20:19:41;33.80;40.60
54006;DHT22;39919;38.160;-122.260;2022-09-09T20:22:14;33.70;40.80
54006;DHT22;39919;38.160;-122.260;2022-09-09T20:24:43;33.60;41.00
54006;DHT22;39919;38.160;-122.260;2022-09-09T20:27:11;33.50;41.30
54006;DHT22;39919;38.160;-122.260;2022-09-09T20:29:42;33.40;41.50
54006;DHT22;39919;38.160;-122.260;2022-09-09T20:32:10;33.30;41.50
54006;DHT22;39919;38.160;-122.260;2022-09-09T20:34:39;33.30;41.70
54006;DHT22;39919;38.160;-122.260;2022-09-09T20:37:07;33.20;41.00
54006;DHT22;39919;38.160;-122.260;2022-09-09T20:39:37;33.20;41.10
54006;DHT22;39919;38.160;-122.260;2022-09-09T20:42:06;33.10;40.80
54006;DHT22;39919;38.160;-122.260;2022-09-09T20:44:34;33.00;40.80
54006;DHT22;39919;38.160;-122.260;2022-09-09T20:47:02;32.90;40.80
54006;DHT22;39919;38.160;-122.260;2022-09-09T20:49:31;32.90;40.90
54006;DHT22;39919;38.160;-122.260;2022-09-09T20:52:00;32.80;41.00
54006;DHT22;39919;38.160;-122.260;2022-09-09T20:54:30;32.70;41.10
54006;DHT22;39919;38.160;-122.260;2022-09-09T20:57:04;32.70;41.20
54006;DHT22;39919;38.160;-122.260;2022-09-09T20:59:33;32.60;41.50
54006;DHT22;39919;38.160;-122.260;2022-09-09T21:02:04;32.50;41.40
54006;DHT22;39919;38.160;-122.260;2022-09-09T21:04:33;32.50;41.40
54006;DHT22;39919;38.160;-122.260;2022-09-09T21:07:03;32.50;41.30
54006;DHT22;39919;38.160;-122.260;2022-09-09T21:09:32;32.40;41.80
54006;DHT22;39919;38.160;-122.260;2022-09-09T21:12:03;32.40;41.40
54006;DHT22;39919;38.160;-122.260;2022-09-09T21:14:32;32.30;41.00
54006;DHT22;39919;38.160;-122.260;2022-09-09T21:17:00;32.40;41.40
54006;DHT22;39919;38.160;-122.260;2022-09-09T21:19:31;32.30;41.60
54006;DHT22;39919;38.160;-122.260;2022-09-09T21:22:00;32.30;41.70
54006;DHT22;39919;38.160;-122.260;2022-09-09T21:24:28;32.30;41.70
54006;DHT22;39919;38.160;-122.260;2022-09-09T21:26:59;32.30;41.90
54006;DHT22;39919;38.160;-122.260;2022-09-09T21:29:29;32.30;41.90
54006;DHT22;39919;38.160;-122.260;2022-09-09T21:31:57;32.40;42.00
54006;DHT22;39919;38.160;-122.260;2022-09-09T21:34:28;32.30;41.90
54006;DHT22;39919;38.160;-122.260;2022-09-09T21:36:59;32.40;41.90
54006;DHT22;39919;38.160;-122.260;2022-09-09T21:39:27;32.40;42.00
54006;DHT22;39919;38.160;-122.260;2022-09-09T21:41:56;32.50;42.00
54006;DHT22;39919;38.160;-122.260;2022-09-09T21:44:24;32.50;42.00
54006;DHT22;39919;38.160;-122.260;2022-09-09T21:46:54;32.50;42.00
54006;DHT22;39919;38.160;-122.260;2022-09-09T21:49:23;32.50;41.90
54006;DHT22;39919;38.160;-122.260;2022-09-09T21:51:52;32.60;41.90
54006;DHT22;39919;38.160;-122.260;2022-09-09T21:54:23;32.50;41.70
54006;DHT22;39919;38.160;-122.260;2022-09-09T21:56:51;32.50;41.80
54006;DHT22;39919;38.160;-122.260;2022-09-09T21:59:19;32.60;41.50
54006;DHT22;39919;38.160;-122.260;2022-09-09T22:01:49;32.60;41.80
54006;DHT22;39919;38.160;-122.260;2022-09-09T22:04:19;32.60;41.50
54006;DHT22;39919;38.160;-122.260;2022-09-09T22:06:47;32.60;41.60
54006;DHT22;39919;38.160;-122.260;2022-09-09T22:09:16;32.60;41.60
54006;DHT22;39919;38.160;-122.260;2022-09-09T22:11:44;32.70;41.70
54006;DHT22;39919;38.160;-122.260;2022-09-09T22:14:12;32.70;41.50
54006;DHT22;39919;38.160;-122.260;2022-09-09T22:16:41;32.70;41.40
54006;DHT22;39919;38.160;-122.260;2022-09-09T22:19:09;32.70;41.50
54006;DHT22;39919;38.160;-122.260;2022-09-09T22:21:39;32.80;41.40
54006;DHT22;39919;38.160;-122.260;2022-09-09T22:24:07;32.80;41.40
54006;DHT22;39919;38.160;-122.260;2022-09-09T22:26:37;32.80;41.40
54006;DHT22;39919;38.160;-122.260;2022-09-09T22:29:05;32.80;40.20
54006;DHT22;39919;38.160;-122.260;2022-09-09T22:31:34;32.80;39.90
54006;DHT22;39919;38.160;-122.260;2022-09-09T22:34:02;32.80;40.60
54006;DHT22;39919;38.160;-122.260;2022-09-09T22:36:31;32.80;39.90
54006;DHT22;39919;38.160;-122.260;2022-09-09T22:39:03;32.80;40.10
54006;DHT22;39919;38.160;-122.260;2022-09-09T22:41:32;32.80;40.40
54006;DHT22;39919;38.160;-122.260;2022-09-09T22:44:05;32.70;40.30
54006;DHT22;39919;38.160;-122.260;2022-09-09T22:46:35;32.70;40.60
54006;DHT22;39919;38.160;-122.260;2022-09-09T22:49:03;32.70;39.30
54006;DHT22;39919;38.160;-122.260;2022-09-09T22:51:32;32.70;38.80
54006;DHT22;39919;38.160;-122.260;2022-09-09T22:54:00;32.70;39.80
54006;DHT22;39919;38.160;-122.260;2022-09-09T22:56:30;32.60;40.00
54006;DHT22;39919;38.160;-122.260;2022-09-09T22:58:59;32.60;40.40
54006;DHT22;39919;38.160;-122.260;2022-09-09T23:01:27;32.60;40.00
54006;DHT22;39919;38.160;-122.260;2022-09-09T23:03:55;32.50;39.70
54006;DHT22;39919;38.160;-122.260;2022-09-09T23:06:25;32.50;40.10
54006;DHT22;39919;38.160;-122.260;2022-09-09T23:08:54;32.50;40.30
54006;DHT22;39919;38.160;-122.260;2022-09-09T23:11:23;32.40;39.70
54006;DHT22;39919;38.160;-122.260;2022-09-09T23:13:54;32.50;40.30
54006;DHT22;39919;38.160;-122.260;2022-09-09T23:16:25;32.50;39.90
54006;DHT22;39919;38.160;-122.260;2022-09-09T23:18:53;32.40;39.50
54006;DHT22;39919;38.160;-122.260;2022-09-09T23:21:22;32.40;39.70
54006;DHT22;39919;38.160;-122.260;2022-09-09T23:23:51;32.30;39.60
54006;DHT22;39919;38.160;-122.260;2022-09-09T23:26:20;32.30;40.00
54006;DHT22;39919;38.160;-122.260;2022-09-09T23:28:49;32.30;40.30
54006;DHT22;39919;38.160;-122.260;2022-09-09T23:31:22;32.20;40.70
54006;DHT22;39919;38.160;-122.260;2022-09-09T23:33:51;32.20;40.80
54006;DHT22;39919;38.160;-122.260;2022-09-09T23:36:20;32.20;41.00
54006;DHT22;39919;38.160;-122.260;2022-09-09T23:38:49;32.20;41.10
54006;DHT22;39919;38.160;-122.260;2022-09-09T23:41:18;32.10;41.00
54006;DHT22;39919;38.160;-122.260;2022-09-09T23:43:50;32.10;41.20
54006;DHT22;39919;38.160;-122.260;2022-09-09T23:46:20;32.00;41.20
54006;DHT22;39919;38.160;-122.260;2022-09-09T23:48:50;31.90;41.20
54006;DHT22;39919;38.160;-122.260;2022-09-09T23:51:19;31.90;41.50
54006;DHT22;39919;38.160;-122.260;2022-09-09T23:53:50;31.80;41.90
54006;DHT22;39919;38.160;-122.260;2022-09-09T23:56:18;31.80;42.00
54006;DHT22;39919;38.160;-122.260;2022-09-09T23:58:47;31.70;42.00
